sensor_id;sensor_type;location;lat;lon;timestamp;P1;durP1;ratioP1;P2;durP2;ratioP2
16179;SDS011;8196;49.428;10.906;2023-08-21T00:00:16;9.50;;;8.50;;
16179;SDS011;8196;49.428;10.906;2023-08-21T00:02:43;9.88;;;8.70;;
16179;SDS011;8196;49.428;10.906;2023-08-21T00:05:11;10.52;;;8.85;;
16179;SDS011;8196;49.428;10.906;2023-08-21T00:07:37;10.65;;;8.88;;
16179;SDS011;8196;49.428;10.906;2023-08-21T00:10:05;10.30;;;9.25;;
16179;SDS011;8196;49.428;10.906;2023-08-21T00:12:32;10.70;;;8.57;;
16179;SDS011;8196;49.428;10.906;2023-08-21T00:14:59;9.52;;;8.52;;
16179;SDS011;8196;49.428;10.906;2023-08-21T00:17:27;10.00;;;8.82;;
16179;SDS011;8196;49.428;10.906;2023-08-21T00:19:54;9.18;;;8.32;;
16179;SDS011;8196;49.428;10.906;2023-08-21T00:22:21;10.60;;;8.80;;
16179;SDS011;8196;49.428;10.906;2023-08-21T00:24:48;8.93;;;8.02;;
16179;SDS011;8196;49.428;10.906;2023-08-21T00:27:16;10.90;;;8.52;;
16179;SDS011;8196;49.428;10.906;2023-08-21T00:29:43;10.43;;;8.52;;
16179;SDS011;8196;49.428;10.906;2023-08-21T00:32:10;9.70;;;8.73;;
16179;SDS011;8196;49.428;10.906;2023-08-21T00:34:38;9.02;;;8.13;;
16179;SDS011;8196;49.428;10.906;2023-08-21T00:37:05;9.63;;;8.57;;
16179;SDS011;8196;49.428;10.906;2023-08-21T00:39:33;10.23;;;8.48;;
16179;SDS011;8196;49.428;10.906;2023-08-21T00:42:00;8.85;;;7.95;;
16179;SDS011;8196;49.428;10.906;2023-08-21T00:44:27;12.40;;;8.90;;
16179;SDS011;8196;49.428;10.906;2023-08-21T00:46:54;10.57;;;8.88;;
16179;SDS011;8196;49.428;10.906;2023-08-21T00:49:21;9.90;;;8.98;;
16179;SDS011;8196;49.428;10.906;2023-08-21T00:51:49;9.95;;;8.73;;
16179;SDS011;8196;49.428;10.906;2023-08-21T00:54:16;9.05;;;8.15;;
16179;SDS011;8196;49.428;10.906;2023-08-21T00:56:44;10.20;;;8.55;;
16179;SDS011;8196;49.428;10.906;2023-08-21T00:59:11;10.63;;;8.70;;
16179;SDS011;8196;49.428;10.906;2023-08-21T01:01:38;9.63;;;8.63;;
16179;SDS011;8196;49.428;10.906;2023-08-21T01:04:06;10.77;;;9.63;;
16179;SDS011;8196;49.428;10.906;2023-08-21T01:06:34;13.57;;;9.90;;
16179;SDS011;8196;49.428;10.906;2023-08-21T01:09:04;12.23;;;10.15;;
16179;SDS011;8196;49.428;10.906;2023-08-21T01:11:38;13.85;;;10.70;;
16179;SDS011;8196;49.428;10.906;2023-08-21T01:16:56;13.13;;;10.93;;
16179;SDS011;8196;49.428;10.906;2023-08-21T01:19:43;12.93;;;10.97;;
16179;SDS011;8196;49.428;10.906;2023-08-21T01:22:10;14.60;;;11.33;;
16179;SDS011;8196;49.428;10.906;2023-08-21T01:24:38;14.13;;;11.47;;
16179;SDS011;8196;49.428;10.906;2023-08-21T01:27:05;13.52;;;11.70;;
16179;SDS011;8196;49.428;10.906;2023-08-21T01:29:32;14.93;;;12.07;;
16179;SDS011;8196;49.428;10.906;2023-08-21T01:34:49;13.30;;;11.90;;
16179;SDS011;8196;49.428;10.906;2023-08-21T01:37:17;15.07;;;11.35;;
16179;SDS011;8196;49.428;10.906;2023-08-21T01:39:45;13.90;;;12.18;;
16179;SDS011;8196;49.428;10.906;2023-08-21T01:42:12;14.30;;;11.10;;
16179;SDS011;8196;49.428;10.906;2023-08-21T01:44:39;13.07;;;11.68;;
16179;SDS011;8196;49.428;10.906;2023-08-21T01:47:06;14.20;;;11.53;;
16179;SDS011;8196;49.428;10.906;2023-08-21T01:49:37;14.07;;;12.43;;
16179;SDS011;8196;49.428;10.906;2023-08-21T01:52:04;14.88;;;12.05;;
16179;SDS011;8196;49.428;10.906;2023-08-21T01:54:31;14.03;;;11.20;;
16179;SDS011;8196;49.428;10.906;2023-08-21T01:56:58;14.00;;;11.60;;
16179;SDS011;8196;49.428;10.906;2023-08-21T01:59:25;15.20;;;11.20;;
16179;SDS011;8196;49.428;10.906;2023-08-21T02:01:55;13.23;;;11.45;;
16179;SDS011;8196;49.428;10.906;2023-08-21T02:04:22;13.23;;;11.13;;
16179;SDS011;8196;49.428;10.906;2023-08-21T02:06:49;14.65;;;10.23;;
16179;SDS011;8196;49.428;10.906;2023-08-21T02:09:17;12.20;;;9.57;;
16179;SDS011;8196;49.428;10.906;2023-08-21T02:11:44;15.18;;;10.45;;
16179;SDS011;8196;49.428;10.906;2023-08-21T02:14:11;11.60;;;9.88;;
16179;SDS011;8196;49.428;10.906;2023-08-21T02:16:38;11.80;;;9.95;;
16179;SDS011;8196;49.428;10.906;2023-08-21T02:19:05;10.63;;;9.52;;
16179;SDS011;8196;49.428;10.906;2023-08-21T02:21:34;13.23;;;9.60;;
16179;SDS011;8196;49.428;10.906;2023-08-21T02:24:01;11.63;;;9.48;;
16179;SDS011;8196;49.428;10.906;2023-08-21T02:28:55;11.70;;;8.95;;
16179;SDS011;8196;49.428;10.906;2023-08-21T02:31:23;11.82;;;9.65;;
16179;SDS011;8196;49.428;10.906;2023-08-21T02:33:51;10.70;;;9.57;;
16179;SDS011;8196;49.428;10.906;2023-08-21T02:36:18;14.02;;;9.05;;
16179;SDS011;8196;49.428;10.906;2023-08-21T02:38:45;14.57;;;9.82;;
16179;SDS011;8196;49.428;10.906;2023-08-21T02:41:12;10.40;;;8.60;;
16179;SDS011;8196;49.428;10.906;2023-08-21T02:43:42;11.20;;;8.98;;
16179;SDS011;8196;49.428;10.906;2023-08-21T02:46:10;11.30;;;9.05;;
16179;SDS011;8196;49.428;10.906;2023-08-21T02:48:37;10.60;;;8.80;;
16179;SDS011;8196;49.428;10.906;2023-08-21T02:51:04;10.52;;;9.05;;
16179;SDS011;8196;49.428;10.906;2023-08-21T02:53:33;10.57;;;9.35;;
16179;SDS011;8196;49.428;10.906;2023-08-21T02:56:00;13.07;;;9.50;;
16179;SDS011;8196;49.428;10.906;2023-08-21T02:58:27;14.27;;;9.00;;
16179;SDS011;8196;49.428;10.906;2023-08-21T03:00:54;11.30;;;8.70;;
16179;SDS011;8196;49.428;10.906;2023-08-21T03:03:22;10.38;;;8.80;;
16179;SDS011;8196;49.428;10.906;2023-08-21T03:05:49;10.32;;;9.20;;
16179;SDS011;8196;49.428;10.906;2023-08-21T03:08:16;10.35;;;9.02;;
16179;SDS011;8196;49.428;10.906;2023-08-21T03:10:46;12.68;;;9.10;;
16179;SDS011;8196;49.428;10.906;2023-08-21T03:13:13;12.30;;;8.57;;
16179;SDS011;8196;49.428;10.906;2023-08-21T03:15:42;11.95;;;9.55;;
16179;SDS011;8196;49.428;10.906;2023-08-21T03:18:10;13.18;;;9.18;;
16179;SDS011;8196;49.428;10.906;2023-08-21T03:20:37;11.15;;;8.85;;
16179;SDS011;8196;49.428;10.906;2023-08-21T03:23:04;10.82;;;9.23;;
16179;SDS011;8196;49.428;10.906;2023-08-21T03:25:31;10.98;;;9.20;;
16179;SDS011;8196;49.428;10.906;2023-08-21T03:27:58;10.10;;;8.35;;
16179;SDS011;8196;49.428;10.906;2023-08-21T03:30:25;11.55;;;9.13;;
16179;SDS011;8196;49.428;10.906;2023-08-21T03:32:53;11.07;;;8.90;;
16179;SDS011;8196;49.428;10.906;2023-08-21T03:35:20;13.07;;;9.00;;
16179;SDS011;8196;49.428;10.906;2023-08-21T03:37:47;10.80;;;8.85;;
16179;SDS011;8196;49.428;10.906;2023-08-21T03:40:14;10.35;;;8.82;;
16179;SDS011;8196;49.428;10.906;2023-08-21T03:42:41;13.00;;;8.20;;
16179;SDS011;8196;49.428;10.906;2023-08-21T03:45:09;11.55;;;8.50;;
16179;SDS011;8196;49.428;10.906;2023-08-21T03:47:36;10.60;;;8.40;;
16179;SDS011;8196;49.428;10.906;2023-08-21T03:50:04;11.77;;;8.73;;
16179;SDS011;8196;49.428;10.906;2023-08-21T03:52:31;10.40;;;8.90;;
16179;SDS011;8196;49.428;10.906;2023-08-21T03:54:58;11.98;;;8.93;;
16179;SDS011;8196;49.428;10.906;2023-08-21T03:57:27;10.95;;;9.13;;
16179;SDS011;8196;49.428;10.906;2023-08-21T03:59:54;13.07;;;8.35;;
16179;SDS011;8196;49.428;10.906;2023-08-21T04:02:21;11.70;;;9.15;;
16179;SDS011;8196;49.428;10.906;2023-08-21T04:04:51;10.75;;;8.20;;
16179;SDS011;8196;49.428;10.906;2023-08-21T04:07:19;11.65;;;8.70;;
16179;SDS011;8196;49.428;10.906;2023-08-21T04:09:46;9.82;;;8.45;;
16179;SDS011;8196;49.428;10.906;2023-08-21T04:12:13;9.63;;;8.17;;
16179;SDS011;8196;49.428;10.906;2023-08-21T04:14:40;10.63;;;8.73;;
16179;SDS011;8196;49.428;10.906;2023-08-21T04:17:08;10.50;;;8.65;;
16179;SDS011;8196;49.428;10.906;2023-08-21T04:19:35;12.05;;;8.70;;
16179;SDS011;8196;49.428;10.906;2023-08-21T04:22:02;9.50;;;8.52;;
16179;SDS011;8196;49.428;10.906;2023-08-21T04:24:29;12.85;;;8.63;;
16179;SDS011;8196;49.428;10.906;2023-08-21T04:26:56;11.02;;;8.85;;
16179;SDS011;8196;49.428;10.906;2023-08-21T04:29:24;12.18;;;9.40;;
16179;SDS011;8196;49.428;10.906;2023-08-21T04:31:51;12.35;;;9.07;;
16179;SDS011;8196;49.428;10.906;2023-08-21T04:34:19;12.00;;;8.68;;
16179;SDS011;8196;49.428;10.906;2023-08-21T04:36:46;10.65;;;7.85;;
16179;SDS011;8196;49.428;10.906;2023-08-21T04:39:13;11.27;;;8.90;;
16179;SDS011;8196;49.428;10.906;2023-08-21T04:41:41;12.15;;;8.90;;
16179;SDS011;8196;49.428;10.906;2023-08-21T04:44:08;11.25;;;8.77;;
16179;SDS011;8196;49.428;10.906;2023-08-21T04:46:35;12.10;;;8.95;;
16179;SDS011;8196;49.428;10.906;2023-08-21T04:49:02;11.88;;;8.70;;
16179;SDS011;8196;49.428;10.906;2023-08-21T04:51:29;12.07;;;8.32;;
16179;SDS011;8196;49.428;10.906;2023-08-21T04:53:57;10.98;;;8.90;;
16179;SDS011;8196;49.428;10.906;2023-08-21T04:56:25;10.38;;;8.60;;
16179;SDS011;8196;49.428;10.906;2023-08-21T04:58:53;12.40;;;8.98;;
16179;SDS011;8196;49.428;10.906;2023-08-21T05:01:20;9.68;;;8.63;;
16179;SDS011;8196;49.428;10.906;2023-08-21T05:03:47;9.30;;;7.97;;
16179;SDS011;8196;49.428;10.906;2023-08-21T05:06:14;13.95;;;8.43;;
16179;SDS011;8196;49.428;10.906;2023-08-21T05:08:41;10.15;;;8.23;;
16179;SDS011;8196;49.428;10.906;2023-08-21T05:11:09;13.20;;;8.95;;
16179;SDS011;8196;49.428;10.906;2023-08-21T05:13:36;11.53;;;9.17;;
16179;SDS011;8196;49.428;10.906;2023-08-21T05:16:03;11.77;;;9.40;;
16179;SDS011;8196;49.428;10.906;2023-08-21T05:18:30;9.70;;;8.50;;
16179;SDS011;8196;49.428;10.906;2023-08-21T05:20:57;9.73;;;8.73;;
16179;SDS011;8196;49.428;10.906;2023-08-21T05:23:24;11.02;;;8.77;;
16179;SDS011;8196;49.428;10.906;2023-08-21T05:25:52;9.07;;;8.15;;
16179;SDS011;8196;49.428;10.906;2023-08-21T05:28:19;9.32;;;8.40;;
16179;SDS011;8196;49.428;10.906;2023-08-21T05:30:46;13.30;;;8.93;;
16179;SDS011;8196;49.428;10.906;2023-08-21T05:33:15;10.00;;;8.40;;
16179;SDS011;8196;49.428;10.906;2023-08-21T05:35:42;11.70;;;8.32;;
16179;SDS011;8196;49.428;10.906;2023-08-21T05:38:09;10.93;;;8.30;;
16179;SDS011;8196;49.428;10.906;2023-08-21T05:40:36;11.00;;;9.05;;
16179;SDS011;8196;49.428;10.906;2023-08-21T05:43:03;11.95;;;10.07;;
16179;SDS011;8196;49.428;10.906;2023-08-21T05:45:31;12.13;;;9.45;;
16179;SDS011;8196;49.428;10.906;2023-08-21T05:47:58;11.37;;;9.10;;
16179;SDS011;8196;49.428;10.906;2023-08-21T05:50:25;12.00;;;9.15;;
16179;SDS011;8196;49.428;10.906;2023-08-21T05:52:52;10.57;;;9.48;;
16179;SDS011;8196;49.428;10.906;2023-08-21T05:55:23;11.90;;;8.75;;
16179;SDS011;8196;49.428;10.906;2023-08-21T05:57:50;12.77;;;8.85;;
16179;SDS011;8196;49.428;10.906;2023-08-21T06:00:17;10.82;;;8.82;;
16179;SDS011;8196;49.428;10.906;2023-08-21T06:02:44;12.43;;;10.20;;
16179;SDS011;8196;49.428;10.906;2023-08-21T06:05:12;13.13;;;10.15;;
16179;SDS011;8196;49.428;10.906;2023-08-21T06:07:41;12.57;;;9.55;;
16179;SDS011;8196;49.428;10.906;2023-08-21T06:10:09;12.23;;;9.82;;
16179;SDS011;8196;49.428;10.906;2023-08-21T06:12:39;14.43;;;10.30;;
16179;SDS011;8196;49.428;10.906;2023-08-21T06:15:07;13.30;;;10.30;;
16179;SDS011;8196;49.428;10.906;2023-08-21T06:17:35;14.10;;;10.57;;
16179;SDS011;8196;49.428;10.906;2023-08-21T06:20:03;14.02;;;9.80;;
16179;SDS011;8196;49.428;10.906;2023-08-21T06:22:35;12.80;;;9.95;;
16179;SDS011;8196;49.428;10.906;2023-08-21T06:25:03;13.65;;;10.15;;
16179;SDS011;8196;49.428;10.906;2023-08-21T06:27:31;12.93;;;9.85;;
16179;SDS011;8196;49.428;10.906;2023-08-21T06:30:13;18.40;;;10.60;;
16179;SDS011;8196;49.428;10.906;2023-08-21T06:32:43;12.55;;;10.43;;
16179;SDS011;8196;49.428;10.906;2023-08-21T06:35:10;13.55;;;10.63;;
16179;SDS011;8196;49.428;10.906;2023-08-21T06:37:37;13.90;;;10.75;;
16179;SDS011;8196;49.428;10.906;2023-08-21T06:40:05;13.15;;;10.30;;
16179;SDS011;8196;49.428;10.906;2023-08-21T06:42:33;14.10;;;10.82;;
16179;SDS011;8196;49.428;10.906;2023-08-21T06:45:06;14.50;;;10.77;;
16179;SDS011;8196;49.428;10.906;2023-08-21T06:47:33;12.73;;;10.82;;
16179;SDS011;8196;49.428;10.906;2023-08-21T06:50:01;14.23;;;10.45;;
16179;SDS011;8196;49.428;10.906;2023-08-21T06:52:28;12.40;;;10.67;;
16179;SDS011;8196;49.428;10.906;2023-08-21T06:54:55;14.00;;;10.38;;
16179;SDS011;8196;49.428;10.906;2023-08-21T06:57:22;13.20;;;10.65;;
16179;SDS011;8196;49.428;10.906;2023-08-21T06:59:49;13.00;;;10.85;;
16179;SDS011;8196;49.428;10.906;2023-08-21T07:02:17;15.43;;;11.30;;
16179;SDS011;8196;49.428;10.906;2023-08-21T07:04:44;15.02;;;10.90;;
16179;SDS011;8196;49.428;10.906;2023-08-21T07:07:11;13.53;;;10.73;;
16179;SDS011;8196;49.428;10.906;2023-08-21T07:09:38;13.13;;;10.10;;
16179;SDS011;8196;49.428;10.906;2023-08-21T07:12:06;14.60;;;11.35;;
16179;SDS011;8196;49.428;10.906;2023-08-21T07:14:33;12.07;;;9.87;;
16179;SDS011;8196;49.428;10.906;2023-08-21T07:17:00;11.98;;;10.65;;
16179;SDS011;8196;49.428;10.906;2023-08-21T07:19:27;14.87;;;10.93;;
16179;SDS011;8196;49.428;10.906;2023-08-21T07:21:54;13.30;;;10.20;;
16179;SDS011;8196;49.428;10.906;2023-08-21T07:24:22;13.50;;;9.55;;
16179;SDS011;8196;49.428;10.906;2023-08-21T07:26:49;12.40;;;10.63;;
16179;SDS011;8196;49.428;10.906;2023-08-21T07:29:16;12.40;;;10.20;;
16179;SDS011;8196;49.428;10.906;2023-08-21T07:31:43;13.52;;;11.10;;
16179;SDS011;8196;49.428;10.906;2023-08-21T07:34:10;12.73;;;10.23;;
16179;SDS011;8196;49.428;10.906;2023-08-21T07:36:37;11.88;;;10.10;;
16179;SDS011;8196;49.428;10.906;2023-08-21T07:39:04;12.27;;;10.15;;
16179;SDS011;8196;49.428;10.906;2023-08-21T07:41:32;14.48;;;10.57;;
16179;SDS011;8196;49.428;10.906;2023-08-21T07:43:59;12.93;;;10.70;;
16179;SDS011;8196;49.428;10.906;2023-08-21T07:46:26;12.05;;;9.48;;
16179;SDS011;8196;49.428;10.906;2023-08-21T07:48:53;11.00;;;9.77;;
16179;SDS011;8196;49.428;10.906;2023-08-21T07:51:20;14.25;;;9.65;;
16179;SDS011;8196;49.428;10.906;2023-08-21T07:53:48;11.55;;;8.70;;
16179;SDS011;8196;49.428;10.906;2023-08-21T07:56:15;11.23;;;8.90;;
16179;SDS011;8196;49.428;10.906;2023-08-21T07:58:42;12.50;;;8.02;;
16179;SDS011;8196;49.428;10.906;2023-08-21T08:01:09;11.20;;;8.38;;
16179;SDS011;8196;49.428;10.906;2023-08-21T08:03:36;9.57;;;8.27;;
16179;SDS011;8196;49.428;10.906;2023-08-21T08:06:04;10.52;;;8.80;;
16179;SDS011;8196;49.428;10.906;2023-08-21T08:08:31;10.10;;;8.18;;
16179;SDS011;8196;49.428;10.906;2023-08-21T08:11:02;14.10;;;8.80;;
16179;SDS011;8196;49.428;10.906;2023-08-21T08:13:30;11.90;;;8.52;;
16179;SDS011;8196;49.428;10.906;2023-08-21T08:15:57;9.20;;;8.13;;
16179;SDS011;8196;49.428;10.906;2023-08-21T08:18:24;10.63;;;8.68;;
16179;SDS011;8196;49.428;10.906;2023-08-21T08:20:51;10.27;;;9.20;;
16179;SDS011;8196;49.428;10.906;2023-08-21T08:23:19;11.18;;;9.00;;
16179;SDS011;8196;49.428;10.906;2023-08-21T08:25:47;14.20;;;9.55;;
16179;SDS011;8196;49.428;10.906;2023-08-21T08:28:14;11.85;;;10.20;;
16179;SDS011;8196;49.428;10.906;2023-08-21T08:30:41;11.77;;;10.00;;
16179;SDS011;8196;49.428;10.906;2023-08-21T08:33:08;11.43;;;10.27;;
16179;SDS011;8196;49.428;10.906;2023-08-21T08:35:36;13.88;;;10.68;;
16179;SDS011;8196;49.428;10.906;2023-08-21T08:38:03;12.00;;;10.80;;
16179;SDS011;8196;49.428;10.906;2023-08-21T08:40:31;12.67;;;11.37;;
16179;SDS011;8196;49.428;10.906;2023-08-21T08:42:58;14.73;;;10.80;;
16179;SDS011;8196;49.428;10.906;2023-08-21T08:45:28;12.13;;;10.55;;
16179;SDS011;8196;49.428;10.906;2023-08-21T08:48:00;12.05;;;10.68;;
16179;SDS011;8196;49.428;10.906;2023-08-21T08:50:29;11.63;;;10.40;;
16179;SDS011;8196;49.428;10.906;2023-08-21T08:52:57;12.33;;;10.63;;
16179;SDS011;8196;49.428;10.906;2023-08-21T08:55:40;12.70;;;10.10;;
16179;SDS011;8196;49.428;10.906;2023-08-21T08:58:07;11.88;;;10.68;;
16179;SDS011;8196;49.428;10.906;2023-08-21T09:00:34;11.35;;;10.23;;
16179;SDS011;8196;49.428;10.906;2023-08-21T09:03:01;11.57;;;10.43;;
16179;SDS011;8196;49.428;10.906;2023-08-21T09:05:29;12.45;;;10.45;;
16179;SDS011;8196;49.428;10.906;2023-08-21T09:08:02;12.02;;;10.65;;
16179;SDS011;8196;49.428;10.906;2023-08-21T09:10:30;12.45;;;10.52;;
16179;SDS011;8196;49.428;10.906;2023-08-21T09:12:57;11.82;;;10.63;;
16179;SDS011;8196;49.428;10.906;2023-08-21T09:15:28;11.97;;;10.57;;
16179;SDS011;8196;49.428;10.906;2023-08-21T09:18:08;12.30;;;10.67;;
16179;SDS011;8196;49.428;10.906;2023-08-21T09:20:36;12.23;;;10.32;;
16179;SDS011;8196;49.428;10.906;2023-08-21T09:23:03;10.57;;;9.47;;
16179;SDS011;8196;49.428;10.906;2023-08-21T09:25:34;11.40;;;10.23;;
16179;SDS011;8196;49.428;10.906;2023-08-21T09:28:05;11.40;;;10.00;;
16179;SDS011;8196;49.428;10.906;2023-08-21T09:30:51;13.80;;;9.27;;
16179;SDS011;8196;49.428;10.906;2023-08-21T09:33:19;10.60;;;9.50;;
16179;SDS011;8196;49.428;10.906;2023-08-21T09:35:48;12.53;;;10.20;;
16179;SDS011;8196;49.428;10.906;2023-08-21T09:38:18;10.77;;;9.67;;
16179;SDS011;8196;49.428;10.906;2023-08-21T09:40:53;11.20;;;9.30;;
16179;SDS011;8196;49.428;10.906;2023-08-21T09:43:22;10.70;;;9.73;;
16179;SDS011;8196;49.428;10.906;2023-08-21T09:45:50;11.07;;;9.50;;
16179;SDS011;8196;49.428;10.906;2023-08-21T09:48:20;11.43;;;8.63;;
16179;SDS011;8196;49.428;10.906;2023-08-21T09:50:50;10.00;;;8.97;;
16179;SDS011;8196;49.428;10.906;2023-08-21T09:53:17;9.75;;;8.50;;
16179;SDS011;8196;49.428;10.906;2023-08-21T09:55:45;10.30;;;8.88;;
16179;SDS011;8196;49.428;10.906;2023-08-21T09:58:13;10.10;;;9.20;;
16179;SDS011;8196;49.428;10.906;2023-08-21T10:00:40;9.52;;;8.45;;
16179;SDS011;8196;49.428;10.906;2023-08-21T10:03:08;9.43;;;8.53;;
16179;SDS011;8196;49.428;10.906;2023-08-21T10:05:37;8.63;;;7.72;;
16179;SDS011;8196;49.428;10.906;2023-08-21T10:08:06;8.95;;;8.15;;
16179;SDS011;8196;49.428;10.906;2023-08-21T10:10:34;9.30;;;8.40;;
16179;SDS011;8196;49.428;10.906;2023-08-21T10:13:02;9.05;;;7.95;;
16179;SDS011;8196;49.428;10.906;2023-08-21T10:15:32;9.75;;;8.75;;
16179;SDS011;8196;49.428;10.906;2023-08-21T10:18:17;9.25;;;8.35;;
16179;SDS011;8196;49.428;10.906;2023-08-21T10:20:45;9.00;;;8.20;;
16179;SDS011;8196;49.428;10.906;2023-08-21T10:23:23;9.02;;;8.13;;
16179;SDS011;8196;49.428;10.906;2023-08-21T10:25:58;8.23;;;7.27;;
16179;SDS011;8196;49.428;10.906;2023-08-21T10:34:03;7.78;;;7.07;;
16179;SDS011;8196;49.428;10.906;2023-08-21T10:39:13;7.15;;;6.45;;
16179;SDS011;8196;49.428;10.906;2023-08-21T10:41:41;7.70;;;6.88;;
16179;SDS011;8196;49.428;10.906;2023-08-21T10:44:08;8.93;;;7.30;;
16179;SDS011;8196;49.428;10.906;2023-08-21T10:46:51;7.95;;;7.13;;
16179;SDS011;8196;49.428;10.906;2023-08-21T10:49:18;7.18;;;6.40;;
16179;SDS011;8196;49.428;10.906;2023-08-21T10:51:45;8.30;;;7.00;;
16179;SDS011;8196;49.428;10.906;2023-08-21T10:54:13;6.75;;;6.15;;
16179;SDS011;8196;49.428;10.906;2023-08-21T10:56:40;9.70;;;7.03;;
16179;SDS011;8196;49.428;10.906;2023-08-21T10:59:08;6.97;;;6.38;;
16179;SDS011;8196;49.428;10.906;2023-08-21T11:01:43;7.27;;;6.57;;
16179;SDS011;8196;49.428;10.906;2023-08-21T11:04:11;7.43;;;6.72;;
16179;SDS011;8196;49.428;10.906;2023-08-21T11:06:38;7.20;;;6.50;;
16179;SDS011;8196;49.428;10.906;2023-08-21T11:09:12;7.22;;;6.00;;
16179;SDS011;8196;49.428;10.906;2023-08-21T11:11:42;7.32;;;5.70;;
16179;SDS011;8196;49.428;10.906;2023-08-21T11:14:10;7.63;;;6.00;;
16179;SDS011;8196;49.428;10.906;2023-08-21T11:16:37;8.88;;;5.68;;
16179;SDS011;8196;49.428;10.906;2023-08-21T11:19:04;8.40;;;5.90;;
16179;SDS011;8196;49.428;10.906;2023-08-21T11:21:32;6.53;;;5.90;;
16179;SDS011;8196;49.428;10.906;2023-08-21T11:23:59;6.90;;;5.10;;
16179;SDS011;8196;49.428;10.906;2023-08-21T11:26:26;7.33;;;5.57;;
16179;SDS011;8196;49.428;10.906;2023-08-21T11:28:53;5.70;;;5.27;;
16179;SDS011;8196;49.428;10.906;2023-08-21T11:31:22;6.35;;;5.50;;
16179;SDS011;8196;49.428;10.906;2023-08-21T11:33:50;7.75;;;6.10;;
16179;SDS011;8196;49.428;10.906;2023-08-21T11:36:18;6.28;;;5.78;;
16179;SDS011;8196;49.428;10.906;2023-08-21T11:39:01;7.00;;;5.77;;
16179;SDS011;8196;49.428;10.906;2023-08-21T11:41:31;6.05;;;5.55;;
16179;SDS011;8196;49.428;10.906;2023-08-21T11:44:02;6.47;;;5.80;;
16179;SDS011;8196;49.428;10.906;2023-08-21T11:46:30;6.72;;;6.05;;
16179;SDS011;8196;49.428;10.906;2023-08-21T11:48:57;8.77;;;6.20;;
16179;SDS011;8196;49.428;10.906;2023-08-21T11:51:28;6.43;;;5.83;;
16179;SDS011;8196;49.428;10.906;2023-08-21T11:53:55;7.47;;;5.97;;
16179;SDS011;8196;49.428;10.906;2023-08-21T11:56:27;6.50;;;6.00;;
16179;SDS011;8196;49.428;10.906;2023-08-21T11:58:55;6.63;;;6.00;;
16179;SDS011;8196;49.428;10.906;2023-08-21T12:01:24;8.97;;;6.00;;
16179;SDS011;8196;49.428;10.906;2023-08-21T12:03:51;7.57;;;5.60;;
16179;SDS011;8196;49.428;10.906;2023-08-21T12:06:23;7.05;;;6.28;;
16179;SDS011;8196;49.428;10.906;2023-08-21T12:08:51;6.20;;;5.60;;
16179;SDS011;8196;49.428;10.906;2023-08-21T12:11:19;6.90;;;5.50;;
16179;SDS011;8196;49.428;10.906;2023-08-21T12:13:46;6.85;;;5.50;;
16179;SDS011;8196;49.428;10.906;2023-08-21T12:16:13;7.13;;;5.43;;
16179;SDS011;8196;49.428;10.906;2023-08-21T12:18:40;6.03;;;5.50;;
16179;SDS011;8196;49.428;10.906;2023-08-21T12:21:07;7.30;;;5.30;;
16179;SDS011;8196;49.428;10.906;2023-08-21T12:23:34;7.35;;;5.90;;
16179;SDS011;8196;49.428;10.906;2023-08-21T12:26:02;6.10;;;5.47;;
16179;SDS011;8196;49.428;10.906;2023-08-21T12:28:29;5.93;;;5.37;;
16179;SDS011;8196;49.428;10.906;2023-08-21T12:30:56;8.48;;;5.40;;
16179;SDS011;8196;49.428;10.906;2023-08-21T12:33:24;6.47;;;5.95;;
16179;SDS011;8196;49.428;10.906;2023-08-21T12:35:52;6.90;;;5.80;;
16179;SDS011;8196;49.428;10.906;2023-08-21T12:38:19;7.50;;;5.87;;
16179;SDS011;8196;49.428;10.906;2023-08-21T12:40:47;6.25;;;5.55;;
16179;SDS011;8196;49.428;10.906;2023-08-21T12:43:14;6.05;;;5.47;;
16179;SDS011;8196;49.428;10.906;2023-08-21T12:45:42;7.22;;;5.22;;
16179;SDS011;8196;49.428;10.906;2023-08-21T12:48:10;6.33;;;5.40;;
16179;SDS011;8196;49.428;10.906;2023-08-21T12:50:37;6.20;;;5.50;;
16179;SDS011;8196;49.428;10.906;2023-08-21T12:53:04;6.15;;;5.38;;
16179;SDS011;8196;49.428;10.906;2023-08-21T12:55:31;6.28;;;5.50;;
16179;SDS011;8196;49.428;10.906;2023-08-21T12:57:58;5.97;;;5.22;;
16179;SDS011;8196;49.428;10.906;2023-08-21T13:00:26;5.63;;;5.07;;
16179;SDS011;8196;49.428;10.906;2023-08-21T13:02:53;5.97;;;5.47;;
16179;SDS011;8196;49.428;10.906;2023-08-21T13:05:20;6.03;;;5.53;;
16179;SDS011;8196;49.428;10.906;2023-08-21T13:07:47;5.90;;;5.40;;
16179;SDS011;8196;49.428;10.906;2023-08-21T13:10:14;5.97;;;5.50;;
16179;SDS011;8196;49.428;10.906;2023-08-21T13:12:41;5.78;;;5.30;;
16179;SDS011;8196;49.428;10.906;2023-08-21T13:15:08;6.20;;;5.70;;
16179;SDS011;8196;49.428;10.906;2023-08-21T13:17:36;6.38;;;5.88;;
16179;SDS011;8196;49.428;10.906;2023-08-21T13:20:03;6.60;;;6.00;;
16179;SDS011;8196;49.428;10.906;2023-08-21T13:22:47;6.30;;;5.80;;
16179;SDS011;8196;49.428;10.906;2023-08-21T13:25:15;6.30;;;5.80;;
16179;SDS011;8196;49.428;10.906;2023-08-21T13:27:43;6.68;;;5.95;;
16179;SDS011;8196;49.428;10.906;2023-08-21T13:30:10;8.55;;;5.68;;
16179;SDS011;8196;49.428;10.906;2023-08-21T13:32:37;6.38;;;5.88;;
16179;SDS011;8196;49.428;10.906;2023-08-21T13:35:07;5.13;;;4.72;;
16179;SDS011;8196;49.428;10.906;2023-08-21T13:37:34;5.53;;;5.03;;
16179;SDS011;8196;49.428;10.906;2023-08-21T13:40:02;5.63;;;4.88;;
16179;SDS011;8196;49.428;10.906;2023-08-21T13:42:29;5.25;;;4.78;;
16179;SDS011;8196;49.428;10.906;2023-08-21T13:44:57;6.47;;;4.75;;
16179;SDS011;8196;49.428;10.906;2023-08-21T13:47:24;6.57;;;4.82;;
16179;SDS011;8196;49.428;10.906;2023-08-21T13:49:52;4.95;;;4.50;;
16179;SDS011;8196;49.428;10.906;2023-08-21T13:52:19;5.25;;;4.85;;
16179;SDS011;8196;49.428;10.906;2023-08-21T13:54:46;5.55;;;5.03;;
16179;SDS011;8196;49.428;10.906;2023-08-21T13:57:13;5.57;;;5.03;;
16179;SDS011;8196;49.428;10.906;2023-08-21T13:59:41;7.10;;;4.88;;
16179;SDS011;8196;49.428;10.906;2023-08-21T14:02:08;5.37;;;4.87;;
16179;SDS011;8196;49.428;10.906;2023-08-21T14:04:35;6.00;;;5.40;;
16179;SDS011;8196;49.428;10.906;2023-08-21T14:07:03;6.32;;;5.80;;
16179;SDS011;8196;49.428;10.906;2023-08-21T14:09:30;6.40;;;5.35;;
16179;SDS011;8196;49.428;10.906;2023-08-21T14:11:57;5.80;;;5.40;;
16179;SDS011;8196;49.428;10.906;2023-08-21T14:14:24;5.90;;;5.18;;
16179;SDS011;8196;49.428;10.906;2023-08-21T14:16:51;6.45;;;5.30;;
16179;SDS011;8196;49.428;10.906;2023-08-21T14:19:19;6.68;;;4.90;;
16179;SDS011;8196;49.428;10.906;2023-08-21T14:21:46;5.50;;;5.10;;
16179;SDS011;8196;49.428;10.906;2023-08-21T14:24:13;5.50;;;5.00;;
16179;SDS011;8196;49.428;10.906;2023-08-21T14:26:40;8.93;;;5.68;;
16179;SDS011;8196;49.428;10.906;2023-08-21T14:29:07;8.18;;;5.68;;
16179;SDS011;8196;49.428;10.906;2023-08-21T14:31:34;6.32;;;5.82;;
16179;SDS011;8196;49.428;10.906;2023-08-21T14:34:01;5.78;;;5.35;;
16179;SDS011;8196;49.428;10.906;2023-08-21T14:36:29;6.43;;;5.82;;
16179;SDS011;8196;49.428;10.906;2023-08-21T14:38:56;6.45;;;5.85;;
16179;SDS011;8196;49.428;10.906;2023-08-21T14:41:23;6.25;;;5.55;;
16179;SDS011;8196;49.428;10.906;2023-08-21T14:43:50;6.75;;;5.78;;
16179;SDS011;8196;49.428;10.906;2023-08-21T14:46:17;6.40;;;5.80;;
16179;SDS011;8196;49.428;10.906;2023-08-21T14:49:04;8.60;;;6.43;;
16179;SDS011;8196;49.428;10.906;2023-08-21T14:51:31;6.18;;;5.57;;
16179;SDS011;8196;49.428;10.906;2023-08-21T14:53:59;6.30;;;5.47;;
16179;SDS011;8196;49.428;10.906;2023-08-21T14:56:26;6.13;;;5.57;;